Time;durP1;ratioP1;P1;durP2;ratioP2;P2;SDS_P1;SDS_P2;PMS_P1;PMS_P2;Temp;Humidity;BMP_temperature;BMP_pressure;BME280_temperature;BME280_humidity;BME280_pressure;Samples;Min_cycle;Max_cycle;Signal;HPM_P1;HPM_P2
2024/03/11 00:00:46;;;;;;;;;;;;;;;8.53;100.00;100759.59;5049919;28;19944;-77
2024/03/11 00:03:12;;;;;;;;;;;;;;;8.54;100.00;100755.34;5049619;28;19917;-78
2024/03/11 00:05:37;;;;;;;;;;;;;;;8.57;100.00;100747.75;5050436;28;19974;-77
2024/03/11 00:08:04;;;;;;;;;;;;;;;8.58;100.00;100750.44;5049991;28;19916;-77
2024/03/11 00:10:31;;;;;;;;;;;;;;;8.57;100.00;100747.75;5051207;28;19923;-78
2024/03/11 00:12:56;;;;;;;;;;;;;;;8.61;100.00;100754.84;5049535;28;19978;-77
2024/03/11 00:15:23;;;;;;;;;;;;;;;8.60;100.00;100744.44;5049818;28;20348;-78
2024/03/11 00:17:48;;;;;;;;;;;;;;;8.51;100.00;100745.78;5030443;28;19921;-77
2024/03/11 00:20:14;;;;;;;;;;;;;;;8.47;100.00;100740.41;5049790;28;19959;-78
2024/03/11 00:22:39;;;;;;;;;;;;;;;8.41;100.00;100752.13;5049655;28;19960;-79
2024/03/11 00:25:05;;;;;;;;;;;;;;;8.35;100.00;100748.34;5049772;28;20023;-80
2024/03/11 00:27:31;;;;;;;;;;;;;;;8.27;100.00;100747.97;5049929;28;19921;-76
2024/03/11 00:29:56;;;;;;;;;;;;;;;8.15;100.00;100757.63;5049515;28;19969;-79
2024/03/11 00:32:24;;;;;;;;;;;;;;;7.94;100.00;100760.88;5049923;28;20343;-78
2024/03/11 00:34:52;;;;;;;;;;;;;;;7.71;100.00;100763.13;5049446;28;19947;-76
2024/03/11 00:37:18;;;;;;;;;;;;;;;7.51;100.00;100751.75;5048285;28;19925;-80
2024/03/11 00:39:43;;;;;;;;;;;;;;;7.52;100.00;100750.94;5032024;28;19923;-76
2024/03/11 00:42:08;;;;;;;;;;;;;;;7.52;100.00;100748.38;5050329;28;19917;-78
2024/03/11 00:44:54;;;;;;;;;;;;;;;7.50;100.00;100742.28;5049856;28;20983;-76
2024/03/11 00:47:40;;;;;;;;;;;;;;;7.52;100.00;100742.38;4988320;28;19928;-74
2024/03/11 00:50:06;;;;;;;;;;;;;;;7.49;100.00;100737.94;4987837;28;20453;-80
2024/03/11 00:52:32;;;;;;;;;;;;;;;7.51;100.00;100728.63;4987642;28;19980;-74
2024/03/11 00:54:57;;;;;;;;;;;;;;;7.54;100.00;100733.03;4987897;28;19929;-75
2024/03/11 00:57:25;;;;;;;;;;;;;;;7.54;100.00;100735.59;4987782;28;20405;-76
2024/03/11 00:59:50;;;;;;;;;;;;;;;7.56;100.00;100734.00;4988503;28;19918;-75
2024/03/11 01:02:15;;;;;;;;;;;;;;;7.55;100.00;100732.25;4987645;28;19928;-74
2024/03/11 01:04:42;;;;;;;;;;;;;;;7.54;100.00;100733.94;4987847;28;19968;-78
2024/03/11 01:07:07;;;;;;;;;;;;;;;7.58;100.00;100723.00;4980748;28;19976;-74
2024/03/11 01:09:33;;;;;;;;;;;;;;;7.65;100.00;100710.50;4987708;28;19925;-75
2024/03/11 01:11:58;;;;;;;;;;;;;;;7.75;100.00;100702.44;4987488;28;19921;-75
2024/03/11 01:14:23;;;;;;;;;;;;;;;7.65;100.00;100683.13;4979315;28;19922;-75
2024/03/11 01:16:48;;;;;;;;;;;;;;;7.54;100.00;100684.22;4988323;28;19918;-74
2024/03/11 01:19:18;;;;;;;;;;;;;;;7.63;100.00;100688.97;5022367;28;19921;-75
2024/03/11 01:21:44;;;;;;;;;;;;;;;7.77;100.00;100694.00;5026758;28;19979;-75
2024/03/11 01:24:10;;;;;;;;;;;;;;;7.88;100.00;100697.16;5029338;28;20115;-76
2024/03/11 01:26:36;;;;;;;;;;;;;;;7.86;100.00;100706.50;5049443;28;19968;-75
2024/03/11 01:29:01;;;;;;;;;;;;;;;7.72;100.00;100705.75;5049734;28;20344;-76
2024/03/11 01:31:28;;;;;;;;;;;;;;;7.41;100.00;100719.56;5053367;28;19921;-75
2024/03/11 01:33:53;;;;;;;;;;;;;;;7.40;100.00;100709.19;5053150;28;19921;-76
2024/03/11 01:36:19;;;;;;;;;;;;;;;7.42;100.00;100699.88;5052605;28;19931;-74
2024/03/11 01:38:46;;;;;;;;;;;;;;;7.48;100.00;100695.06;5053060;28;19921;-75
2024/03/11 01:41:12;;;;;;;;;;;;;;;7.48;100.00;100683.91;5053141;28;20409;-75
2024/03/11 01:43:37;;;;;;;;;;;;;;;7.52;100.00;100686.72;5049670;28;19925;-76
2024/03/11 01:46:03;;;;;;;;;;;;;;;7.53;100.00;100696.19;5053005;28;19947;-80
2024/03/11 01:48:29;;;;;;;;;;;;;;;7.57;100.00;100695.53;5017226;28;20011;-75
2024/03/11 01:50:55;;;;;;;;;;;;;;;7.60;100.00;100695.72;5052248;28;19920;-74
2024/03/11 01:53:21;;;;;;;;;;;;;;;7.62;100.00;100703.50;5052797;28;19925;-74
2024/03/11 01:55:48;;;;;;;;;;;;;;;7.59;100.00;100709.38;5052605;28;20425;-75
2024/03/11 01:58:13;;;;;;;;;;;;;;;7.42;100.00;100702.47;5052742;28;19928;-75
2024/03/11 02:00:42;;;;;;;;;;;;;;;7.34;100.00;100704.63;5052700;28;20295;-75
2024/03/11 02:03:07;;;;;;;;;;;;;;;7.32;100.00;100705.34;5052312;28;19924;-75
2024/03/11 02:05:34;;;;;;;;;;;;;;;7.36;100.00;100703.00;5052180;28;19931;-75
2024/03/11 02:08:02;;;;;;;;;;;;;;;7.43;100.00;100678.53;5048213;28;20003;-76
2024/03/11 02:10:28;;;;;;;;;;;;;;;7.42;100.00;100672.50;5052539;28;19925;-75
2024/03/11 02:12:55;;;;;;;;;;;;;;;7.51;100.00;100674.66;5052833;28;19923;-79
2024/03/11 02:15:21;;;;;;;;;;;;;;;7.64;100.00;100670.19;5052282;28;20392;-78
2024/03/11 02:17:47;;;;;;;;;;;;;;;7.69;100.00;100682.47;5052036;28;19975;-75
2024/03/11 02:20:16;;;;;;;;;;;;;;;7.68;100.00;100673.00;5052179;28;20496;-75
2024/03/11 02:22:52;;;;;;;;;;;;;;;7.67;100.00;100666.09;5052822;28;19971;-75
2024/03/11 02:25:21;;;;;;;;;;;;;;;7.37;100.00;100665.38;5052100;28;20038;-75
2024/03/11 02:27:47;;;;;;;;;;;;;;;7.29;100.00;100688.94;5051761;28;19959;-78
2024/03/11 02:30:15;;;;;;;;;;;;;;;7.37;100.00;100667.94;5052071;28;19982;-75
2024/03/11 02:32:40;;;;;;;;;;;;;;;7.43;100.00;100681.97;5051937;28;19921;-75
2024/03/11 02:35:07;;;;;;;;;;;;;;;7.42;100.00;100674.19;5051999;28;19921;-74
2024/03/11 02:37:33;;;;;;;;;;;;;;;7.46;100.00;100676.13;5051559;28;19924;-74
2024/03/11 02:39:59;;;;;;;;;;;;;;;7.47;100.00;100677.03;5050909;28;19921;-75
2024/03/11 02:42:25;;;;;;;;;;;;;;;7.46;100.00;100668.41;5051560;28;20020;-75
2024/03/11 02:44:51;;;;;;;;;;;;;;;7.48;100.00;100676.19;5051461;28;20003;-74
2024/03/11 02:47:17;;;;;;;;;;;;;;;7.48;100.00;100674.53;5051753;28;19924;-75
2024/03/11 02:49:42;;;;;;;;;;;;;;;7.38;100.00;100672.28;5052130;28;19917;-74
2024/03/11 02:52:07;;;;;;;;;;;;;;;7.30;100.00;100689.81;5051391;28;20000;-81
2024/03/11 02:54:33;;;;;;;;;;;;;;;7.29;100.00;100673.53;5051467;28;20351;-74
2024/03/11 02:56:58;;;;;;;;;;;;;;;7.33;100.00;100673.69;5051986;28;19956;-76
2024/03/11 02:59:24;;;;;;;;;;;;;;;7.36;100.00;100674.75;5051117;28;19924;-75
2024/03/11 03:01:50;;;;;;;;;;;;;;;7.36;100.00;100684.16;5051664;28;20450;-75
2024/03/11 03:04:18;;;;;;;;;;;;;;;7.33;100.00;100691.66;5051388;28;19978;-74
2024/03/11 03:06:44;;;;;;;;;;;;;;;7.29;100.00;100696.66;5050968;28;20292;-75
2024/03/11 03:09:10;;;;;;;;;;;;;;;7.24;100.00;100705.81;5051198;28;19925;-73
2024/03/11 03:11:36;;;;;;;;;;;;;;;7.03;100.00;100705.50;5050905;28;19925;-75
2024/03/11 03:14:01;;;;;;;;;;;;;;;6.66;100.00;100716.28;5051204;28;19943;-75
2024/03/11 03:16:26;;;;;;;;;;;;;;;6.45;100.00;100714.25;5051102;28;19928;-74
2024/03/11 03:18:54;;;;;;;;;;;;;;;6.23;100.00;100703.56;5051311;28;20368;-73
2024/03/11 03:21:19;;;;;;;;;;;;;;;6.15;100.00;100709.13;5051025;28;19920;-75
2024/03/11 03:23:44;;;;;;;;;;;;;;;6.13;100.00;100703.03;5051094;28;19959;-75
2024/03/11 03:26:10;;;;;;;;;;;;;;;6.12;100.00;100708.09;5051030;28;19926;-76
2024/03/11 03:28:37;;;;;;;;;;;;;;;6.00;100.00;100703.09;5051338;28;19935;-73
2024/03/11 03:31:04;;;;;;;;;;;;;;;5.99;100.00;100701.34;5032794;28;20004;-77
2024/03/11 03:33:29;;;;;;;;;;;;;;;6.00;100.00;100700.53;5050740;28;19920;-75
2024/03/11 03:35:55;;;;;;;;;;;;;;;5.99;100.00;100694.53;5050427;28;19925;-79
2024/03/11 03:38:21;;;;;;;;;;;;;;;5.94;100.00;100693.34;5050506;28;19957;-74
2024/03/11 03:40:46;;;;;;;;;;;;;;;5.87;100.00;100695.44;5050726;28;19931;-75
2024/03/11 03:43:11;;;;;;;;;;;;;;;5.90;100.00;100698.19;5032487;28;19979;-75
2024/03/11 03:45:37;;;;;;;;;;;;;;;5.80;100.00;100700.19;5050274;28;19924;-80
2024/03/11 03:48:02;;;;;;;;;;;;;;;5.64;100.00;100702.63;5050450;28;20360;-76
2024/03/11 03:50:27;;;;;;;;;;;;;;;5.61;100.00;100708.47;5051253;28;19920;-75
2024/03/11 03:52:53;;;;;;;;;;;;;;;5.58;100.00;100708.28;5050222;28;19921;-75
2024/03/11 03:55:18;;;;;;;;;;;;;;;5.57;100.00;100697.94;5050460;28;19928;-76
2024/03/11 03:57:44;;;;;;;;;;;;;;;5.53;100.00;100704.53;5050284;28;19974;-77
2024/03/11 04:00:16;;;;;;;;;;;;;;;5.26;100.00;100703.72;5048437;28;20300;-75
2024/03/11 04:02:42;;;;;;;;;;;;;;;5.34;100.00;100707.66;5046864;28;20336;-75
2024/03/11 04:05:09;;;;;;;;;;;;;;;5.50;100.00;100709.50;5049133;28;19970;-74
2024/03/11 04:07:35;;;;;;;;;;;;;;;5.56;100.00;100704.75;5050147;28;19920;-75
2024/03/11 04:10:01;;;;;;;;;;;;;;;5.65;100.00;100705.28;5050180;28;20510;-76
2024/03/11 04:12:27;;;;;;;;;;;;;;;5.77;100.00;100705.16;5032295;28;20406;-75
2024/03/11 04:14:53;;;;;;;;;;;;;;;5.85;100.00;100714.97;5051083;28;19926;-73
2024/03/11 04:17:19;;;;;;;;;;;;;;;5.92;100.00;100714.53;5050076;28;20303;-75
2024/03/11 04:19:44;;;;;;;;;;;;;;;6.02;100.00;100711.78;5049952;28;20439;-75
2024/03/11 04:22:11;;;;;;;;;;;;;;;6.11;100.00;100721.69;5050051;28;19921;-75
2024/03/11 04:24:36;;;;;;;;;;;;;;;6.11;100.00;100719.13;5050005;28;19967;-75
2024/03/11 04:27:02;;;;;;;;;;;;;;;6.20;100.00;100717.09;5050016;28;19998;-80
2024/03/11 04:29:27;;;;;;;;;;;;;;;6.32;100.00;100717.81;5050289;28;19921;-78
2024/03/11 04:31:53;;;;;;;;;;;;;;;6.28;100.00;100726.13;5049902;28;20427;-75
2024/03/11 04:34:20;;;;;;;;;;;;;;;6.37;100.00;100715.50;5050011;28;20415;-75
2024/03/11 04:36:46;;;;;;;;;;;;;;;6.28;100.00;100713.31;5049964;28;20310;-76
2024/03/11 04:39:14;;;;;;;;;;;;;;;6.38;100.00;100714.72;5050594;28;19917;-75
2024/03/11 04:41:59;;;;;;;;;;;;;;;6.45;100.00;100723.63;5048139;28;20026;-75
2024/03/11 04:44:24;;;;;;;;;;;;;;;6.43;100.00;100723.56;5007579;28;19964;-76
2024/03/11 04:46:50;;;;;;;;;;;;;;;6.44;100.00;100727.91;5008651;28;20065;-75
2024/03/11 04:49:15;;;;;;;;;;;;;;;6.48;100.00;100723.84;5006822;28;19937;-76
2024/03/11 04:51:40;;;;;;;;;;;;;;;6.41;100.00;100726.84;4998299;28;20336;-75
2024/03/11 04:54:08;;;;;;;;;;;;;;;6.45;100.00;100727.06;5007565;28;19992;-75
2024/03/11 04:56:34;;;;;;;;;;;;;;;6.55;100.00;100730.19;5007689;28;20008;-77
2024/03/11 04:59:00;;;;;;;;;;;;;;;6.63;100.00;100732.41;5008378;28;20004;-76
2024/03/11 05:01:26;;;;;;;;;;;;;;;6.70;100.00;100740.44;5008090;28;20044;-76
2024/03/11 05:03:52;;;;;;;;;;;;;;;6.71;100.00;100739.66;5008884;28;19999;-75
2024/03/11 05:06:17;;;;;;;;;;;;;;;6.71;100.00;100743.09;5011728;28;20435;-75
2024/03/11 05:08:44;;;;;;;;;;;;;;;6.77;100.00;100743.44;5011082;28;19921;-79
2024/03/11 05:11:09;;;;;;;;;;;;;;;6.76;100.00;100746.78;5011481;28;19921;-76
2024/03/11 05:13:36;;;;;;;;;;;;;;;6.79;100.00;100754.69;5007117;28;20404;-76
2024/03/11 05:16:03;;;;;;;;;;;;;;;6.83;100.00;100749.72;5028881;28;19917;-76
2024/03/11 05:18:29;;;;;;;;;;;;;;;6.70;100.00;100750.69;5033709;28;19991;-73
2024/03/11 05:20:55;;;;;;;;;;;;;;;6.69;100.00;100751.50;5033531;28;20384;-77
2024/03/11 05:23:20;;;;;;;;;;;;;;;6.70;100.00;100750.69;5033763;28;20380;-75
2024/03/11 05:25:46;;;;;;;;;;;;;;;6.69;100.00;100754.06;5034024;28;19940;-75
2024/03/11 05:28:12;;;;;;;;;;;;;;;6.70;100.00;100755.84;5033686;28;20295;-74
2024/03/11 05:30:37;;;;;;;;;;;;;;;6.67;100.00;100748.84;5033309;28;19971;-74
2024/03/11 05:33:02;;;;;;;;;;;;;;;6.62;100.00;100747.72;5033363;28;19975;-75
2024/03/11 05:35:28;;;;;;;;;;;;;;;6.59;100.00;100733.03;5033791;28;19932;-75
2024/03/11 05:37:54;;;;;;;;;;;;;;;6.60;100.00;100734.81;5033633;28;19978;-75
2024/03/11 05:40:20;;;;;;;;;;;;;;;6.63;100.00;100739.22;5034099;28;19917;-75
2024/03/11 05:42:48;;;;;;;;;;;;;;;6.71;100.00;100737.09;5035191;28;19928;-75
2024/03/11 05:45:13;;;;;;;;;;;;;;;6.73;100.00;100750.88;5053176;28;19927;-75
2024/03/11 05:47:41;;;;;;;;;;;;;;;6.52;100.00;100748.84;5053065;28;20376;-74
2024/03/11 05:50:09;;;;;;;;;;;;;;;6.41;100.00;100743.09;5017420;28;19956;-75
2024/03/11 05:52:35;;;;;;;;;;;;;;;6.40;100.00;100743.00;5051534;28;20336;-77
2024/03/11 05:55:01;;;;;;;;;;;;;;;6.23;100.00;100736.88;5053353;28;19959;-75
2024/03/11 05:57:26;;;;;;;;;;;;;;;6.22;100.00;100736.03;5052897;28;19964;-74
2024/03/11 05:59:52;;;;;;;;;;;;;;;6.30;100.00;100733.91;5052753;28;20380;-74
2024/03/11 06:02:20;;;;;;;;;;;;;;;6.24;100.00;100739.56;5052975;28;19936;-75
2024/03/11 06:04:46;;;;;;;;;;;;;;;6.27;100.00;100728.59;5052644;28;19928;-76
2024/03/11 06:07:33;;;;;;;;;;;;;;;6.13;100.00;100743.16;5053568;28;20071;-75
2024/03/11 06:09:58;;;;;;;;;;;;;;;5.94;100.00;100749.75;5051053;28;19927;-75
2024/03/11 06:12:24;;;;;;;;;;;;;;;6.08;100.00;100748.03;5052604;28;19921;-75
2024/03/11 06:14:49;;;;;;;;;;;;;;;6.14;100.00;100747.50;5053008;28;19921;-74
2024/03/11 06:17:15;;;;;;;;;;;;;;;6.15;100.00;100746.69;5053601;28;20454;-75
2024/03/11 06:19:41;;;;;;;;;;;;;;;6.20;100.00;100745.28;5052473;28;19925;-75
2024/03/11 06:22:09;;;;;;;;;;;;;;;6.24;100.00;100739.56;5052608;28;19927;-77
2024/03/11 06:24:35;;;;;;;;;;;;;;;6.23;100.00;100747.16;5052365;28;20395;-75
2024/03/11 06:27:00;;;;;;;;;;;;;;;6.32;100.00;100755.41;5052357;28;19925;-74
2024/03/11 06:29:26;;;;;;;;;;;;;;;6.41;100.00;100749.91;5052494;28;20300;-75
2024/03/11 06:31:53;;;;;;;;;;;;;;;6.46;100.00;100745.94;5033292;28;19929;-74
2024/03/11 06:34:21;;;;;;;;;;;;;;;6.50;100.00;100740.19;5034303;28;20347;-75
2024/03/11 06:36:46;;;;;;;;;;;;;;;6.52;100.00;100746.28;5052349;28;19916;-74
2024/03/11 06:39:14;;;;;;;;;;;;;;;6.52;100.00;100738.59;5051986;28;19939;-79
2024/03/11 06:41:41;;;;;;;;;;;;;;;6.54;100.00;100746.38;5052130;28;19960;-75
2024/03/11 06:44:06;;;;;;;;;;;;;;;6.61;100.00;100745.94;5052028;28;20382;-76
2024/03/11 06:46:31;;;;;;;;;;;;;;;6.72;100.00;100739.72;5048558;28;19921;-74
2024/03/11 06:48:57;;;;;;;;;;;;;;;6.79;100.00;100736.72;5051596;28;19982;-74
2024/03/11 06:51:22;;;;;;;;;;;;;;;6.77;100.00;100743.44;5052106;28;20023;-75
2024/03/11 06:53:47;;;;;;;;;;;;;;;6.74;100.00;100738.16;5051911;28;20046;-74
2024/03/11 06:56:13;;;;;;;;;;;;;;;6.79;100.00;100735.81;5052540;28;19928;-75
2024/03/11 06:58:38;;;;;;;;;;;;;;;6.82;100.00;100741.13;5052134;28;20391;-76
2024/03/11 07:01:04;;;;;;;;;;;;;;;6.83;100.00;100737.78;5051810;28;20391;-75
2024/03/11 07:03:32;;;;;;;;;;;;;;;6.88;100.00;100738.91;5052427;28;19924;-75
2024/03/11 07:06:00;;;;;;;;;;;;;;;6.96;100.00;100745.34;5051723;28;20015;-77
2024/03/11 07:08:30;;;;;;;;;;;;;;;7.05;100.00;100737.31;5052115;28;19917;-74
2024/03/11 07:10:55;;;;;;;;;;;;;;;7.19;100.00;100738.06;5051426;28;20315;-74
2024/03/11 07:13:21;;;;;;;;;;;;;;;7.31;100.00;100736.97;5051398;28;19921;-74
2024/03/11 07:15:46;;;;;;;;;;;;;;;7.43;100.00;100740.19;5051476;28;20389;-74
2024/03/11 07:18:12;;;;;;;;;;;;;;;7.53;100.00;100739.88;5051389;28;19921;-75
2024/03/11 07:20:38;;;;;;;;;;;;;;;7.63;100.00;100742.91;5051206;28;19933;-79
2024/03/11 07:23:03;;;;;;;;;;;;;;;7.79;100.00;100730.09;5051162;28;19923;-75
2024/03/11 07:25:32;;;;;;;;;;;;;;;7.97;100.00;100747.28;5051861;28;19916;-75
2024/03/11 07:27:58;;;;;;;;;;;;;;;8.11;100.00;100746.28;5050922;28;19928;-74
2024/03/11 07:30:23;;;;;;;;;;;;;;;8.21;100.00;100727.06;5051454;28;20354;-74
2024/03/11 07:33:01;;;;;;;;;;;;;;;8.34;100.00;100729.47;5051381;28;20312;-74
2024/03/11 07:35:27;;;;;;;;;;;;;;;8.35;100.00;100727.75;5046729;28;19916;-74
2024/03/11 07:37:52;;;;;;;;;;;;;;;8.45;100.00;100727.44;5050878;28;20019;-75
2024/03/11 07:40:17;;;;;;;;;;;;;;;8.61;100.00;100723.97;5050695;28;19921;-75
2024/03/11 07:42:43;;;;;;;;;;;;;;;8.74;100.00;100731.44;5050448;28;19928;-74
2024/03/11 07:45:11;;;;;;;;;;;;;;;8.84;100.00;100725.06;5051082;28;19947;-74
2024/03/11 07:47:37;;;;;;;;;;;;;;;8.99;100.00;100722.34;5047725;28;19931;-75
2024/03/11 07:50:03;;;;;;;;;;;;;;;9.06;100.00;100723.53;5051316;28;19924;-78
2024/03/11 07:52:29;;;;;;;;;;;;;;;9.14;100.00;100718.72;5050670;28;20320;-74
2024/03/11 07:54:54;;;;;;;;;;;;;;;9.26;100.00;100719.28;5050657;28;19928;-80
2024/03/11 07:57:20;;;;;;;;;;;;;;;9.34;100.00;100725.66;5050554;28;19921;-75
2024/03/11 07:59:45;;;;;;;;;;;;;;;9.42;100.00;100730.28;5050743;28;20376;-74
2024/03/11 08:02:10;;;;;;;;;;;;;;;9.42;100.00;100732.88;5050204;28;19920;-76
2024/03/11 08:04:36;;;;;;;;;;;;;;;9.46;100.00;100734.75;5051249;28;19924;-74
2024/03/11 08:07:04;;;;;;;;;;;;;;;9.47;100.00;100741.69;5050513;28;20308;-74
2024/03/11 08:09:30;;;;;;;;;;;;;;;9.47;100.00;100745.16;5050532;28;19921;-74
2024/03/11 08:11:57;;;;;;;;;;;;;;;9.49;100.00;100751.25;5050907;28;19917;-74
2024/03/11 08:14:23;;;;;;;;;;;;;;;9.45;100.00;100757.09;5050497;28;19921;-74
2024/03/11 08:16:51;;;;;;;;;;;;;;;9.33;100.00;100754.84;5050802;28;19921;-74
2024/03/11 08:19:17;;;;;;;;;;;;;;;9.24;100.00;100746.66;5050301;28;19921;-74
2024/03/11 08:21:43;;;;;;;;;;;;;;;9.33;100.00;100743.63;5050334;28;19928;-79
2024/03/11 08:24:11;;;;;;;;;;;;;;;9.37;100.00;100748.13;5050505;28;19956;-75
2024/03/11 08:26:37;;;;;;;;;;;;;;;9.43;100.00;100744.94;5050413;28;19995;-75
2024/03/11 08:29:03;;;;;;;;;;;;;;;9.50;100.00;100745.28;5050433;28;19928;-74
2024/03/11 08:31:28;;;;;;;;;;;;;;;9.55;100.00;100746.38;5014576;28;20368;-74
2024/03/11 08:33:54;;;;;;;;;;;;;;;9.53;100.00;100742.88;5050069;28;20767;-75
2024/03/11 08:36:19;;;;;;;;;;;;;;;9.60;100.00;100738.00;5048393;28;19920;-75
2024/03/11 08:38:45;;;;;;;;;;;;;;;9.70;100.00;100733.31;5050999;28;19916;-75
2024/03/11 08:41:14;;;;;;;;;;;;;;;9.79;100.00;100726.81;5054114;28;19917;-76
2024/03/11 08:43:39;;;;;;;;;;;;;;;9.84;100.00;100728.78;5054033;28;20295;-74
2024/03/11 08:46:04;;;;;;;;;;;;;;;9.94;100.00;100731.75;5054314;28;19928;-79
2024/03/11 08:48:30;;;;;;;;;;;;;;;10.05;100.00;100722.78;5054220;28;19921;-75
2024/03/11 08:50:55;;;;;;;;;;;;;;;10.14;100.00;100725.78;5036476;28;19923;-75
2024/03/11 08:53:21;;;;;;;;;;;;;;;10.24;100.00;100718.41;5054479;28;19939;-77
2024/03/11 08:55:48;;;;;;;;;;;;;;;10.32;100.00;100717.91;5054036;28;19973;-74
2024/03/11 08:58:15;;;;;;;;;;;;;;;10.34;100.00;100720.53;5054174;28;19972;-74
2024/03/11 09:00:41;;;;;;;;;;;;;;;10.36;100.00;100708.63;5035934;28;20422;-74
2024/03/11 09:03:06;;;;;;;;;;;;;;;10.46;100.00;100705.59;5054015;28;20011;-74
2024/03/11 09:05:32;;;;;;;;;;;;;;;10.53;100.00;100706.75;5053645;28;19917;-74
2024/03/11 09:07:58;;;;;;;;;;;;;;;10.64;100.00;100710.66;5053940;28;19967;-75
2024/03/11 09:10:23;;;;;;;;;;;;;;;10.70;100.00;100706.56;5052187;28;20292;-74
2024/03/11 09:12:51;;;;;;;;;;;;;;;10.82;100.00;100705.31;5050841;28;19925;-73
2024/03/11 09:15:16;;;;;;;;;;;;;;;10.91;100.00;100704.81;5053524;28;19924;-75
2024/03/11 09:17:43;;;;;;;;;;;;;;;10.97;100.00;100704.19;5053719;28;20051;-74
2024/03/11 09:20:15;;;;;;;;;;;;;;;11.06;100.00;100695.91;5053665;28;19971;-74
2024/03/11 09:22:45;;;;;;;;;;;;;;;11.20;100.00;100696.44;5053509;28;20700;-74
2024/03/11 09:25:13;;;;;;;;;;;;;;;11.31;100.00;100689.97;5053575;28;19928;-74
2024/03/11 09:27:38;;;;;;;;;;;;;;;11.44;100.00;100688.69;5018131;28;19955;-74
2024/03/11 09:30:05;;;;;;;;;;;;;;;11.55;100.00;100682.25;5054015;28;19921;-74
2024/03/11 09:32:30;;;;;;;;;;;;;;;11.60;100.00;100674.63;5049521;28;19966;-75
2024/03/11 09:34:58;;;;;;;;;;;;;;;11.68;100.00;100673.22;5053460;28;19921;-77
2024/03/11 09:37:24;;;;;;;;;;;;;;;11.73;100.00;100679.41;5049414;28;19928;-75
2024/03/11 09:39:49;;;;;;;;;;;;;;;11.88;100.00;100683.38;5053363;28;19967;-74
2024/03/11 09:42:16;;;;;;;;;;;;;;;12.05;100.00;100686.56;5053280;28;20320;-73
2024/03/11 09:44:42;;;;;;;;;;;;;;;12.19;100.00;100682.75;5053165;28;19920;-75
2024/03/11 09:47:07;;;;;;;;;;;;;;;12.37;100.00;100674.72;5052875;28;20497;-74
2024/03/11 09:49:34;;;;;;;;;;;;;;;12.49;100.00;100676.84;5052600;28;20007;-74
2024/03/11 09:52:01;;;;;;;;;;;;;;;12.64;100.00;100676.44;5053152;28;20308;-75
2024/03/11 09:54:28;;;;;;;;;;;;;;;12.81;100.00;100670.91;5053051;28;19928;-75
2024/03/11 09:56:54;;;;;;;;;;;;;;;12.91;100.00;100673.84;5053223;28;19925;-75
2024/03/11 09:59:26;;;;;;;;;;;;;;;12.97;100.00;100670.53;5017296;28;19964;-74
2024/03/11 10:01:52;;;;;;;;;;;;;;;13.06;100.00;100664.75;5052878;28;19928;-74
2024/03/11 10:04:25;;;;;;;;;;;;;;;13.03;100.00;100657.75;5053442;28;19916;-74
2024/03/11 10:06:59;;;;;;;;;;;;;;;13.07;100.00;100654.47;5052895;28;20589;-74
2024/03/11 10:09:25;;;;;;;;;;;;;;;13.09;100.00;100663.13;5052778;28;19975;-75
2024/03/11 10:12:07;;;;;;;;;;;;;;;13.22;100.00;100661.81;5052480;28;20020;-73
2024/03/11 10:14:34;;;;;;;;;;;;;;;13.30;100.00;100656.84;5052896;28;19920;-74
2024/03/11 10:17:16;;;;;;;;;;;;;;;13.38;100.00;100657.97;5053323;28;19917;-74
2024/03/11 10:19:46;;;;;;;;;;;;;;;13.45;100.00;100658.16;5052517;28;19917;-75
2024/03/11 10:22:12;;;;;;;;;;;;;;;13.47;100.00;100664.25;5052348;28;19928;-74
2024/03/11 10:24:38;;;;;;;;;;;;;;;13.52;100.00;100665.25;5052364;28;19920;-74
2024/03/11 10:27:17;;;;;;;;;;;;;;;13.57;100.00;100668.84;5052093;28;20011;-74
2024/03/11 10:29:42;;;;;;;;;;;;;;;13.65;100.00;100666.47;5052384;28;20410;-74
2024/03/11 10:32:07;;;;;;;;;;;;;;;13.72;100.00;100671.88;5052429;28;19921;-76
2024/03/11 10:34:51;;;;;;;;;;;;;;;13.79;100.00;100664.25;5052356;28;19974;-74
2024/03/11 10:37:18;;;;;;;;;;;;;;;13.88;100.00;100670.59;5044191;28;19986;-74
2024/03/11 10:39:44;;;;;;;;;;;;;;;13.99;100.00;100672.56;5052374;28;19916;-74
2024/03/11 10:42:15;;;;;;;;;;;;;;;14.02;100.00;100665.75;5052749;28;19917;-75
2024/03/11 19:42:24;;;;;;;;;;;;;;;13.44;100.00;100338.28;4999587;28;20070;-72
2024/03/11 19:44:52;;;;;;;;;;;;;;;13.51;100.00;100328.94;5011582;28;19971;-71
2024/03/11 19:47:47;;;;;;;;;;;;;;;13.57;100.00;100329.94;5009874;28;19933;-73
2024/03/11 19:50:21;;;;;;;;;;;;;;;13.60;100.00;100316.16;4941148;28;19926;-73
2024/03/11 19:52:47;;;;;;;;;;;;;;;13.53;100.00;100322.94;4934777;28;20147;-72
2024/03/11 19:55:30;;;;;;;;;;;;;;;13.48;100.00;100316.75;4943805;28;20565;-72
2024/03/11 19:58:15;;;;;;;;;;;;;;;13.37;100.00;100324.31;4939159;28;19969;-73
2024/03/11 20:00:41;;;;;;;;;;;;;;;13.17;100.00;100309.94;4945434;28;19922;-72
2024/03/11 20:03:12;;;;;;;;;;;;;;;12.97;100.00;100312.06;4940356;28;19919;-73
2024/03/11 20:05:44;;;;;;;;;;;;;;;12.85;100.00;100323.88;4951880;28;19945;-73
2024/03/11 20:08:16;;;;;;;;;;;;;;;12.73;100.00;100318.38;4944029;28;20441;-73
2024/03/11 20:10:56;;;;;;;;;;;;;;;12.69;100.00;100324.34;4940857;28;20332;-72
2024/03/11 20:13:30;;;;;;;;;;;;;;;12.77;100.00;100330.56;4941766;28;19926;-73
2024/03/11 20:15:59;;;;;;;;;;;;;;;12.87;100.00;100336.88;4936060;28;19932;-73
2024/03/11 20:18:36;;;;;;;;;;;;;;;12.94;100.00;100338.78;4943151;28;20765;-71
2024/03/11 20:21:20;;;;;;;;;;;;;;;13.00;100.00;100336.34;4940361;28;19974;-73
2024/03/11 20:23:57;;;;;;;;;;;;;;;13.07;100.00;100333.06;4943285;28;19977;-73
2024/03/11 20:26:39;;;;;;;;;;;;;;;13.12;100.00;100338.34;4972372;28;19929;-73
2024/03/11 20:29:25;;;;;;;;;;;;;;;13.11;100.00;100336.63;5019011;28;19964;-73
2024/03/11 20:31:50;;;;;;;;;;;;;;;13.11;100.00;100334.88;5015252;28;20001;-71
2024/03/11 20:34:18;;;;;;;;;;;;;;;13.13;100.00;100334.06;5018315;28;20315;-73
2024/03/11 20:36:47;;;;;;;;;;;;;;;13.16;100.00;100328.94;5013624;28;19944;-73
2024/03/11 20:39:12;;;;;;;;;;;;;;;13.21;100.00;100332.53;5015927;28;19925;-73
2024/03/11 20:41:39;;;;;;;;;;;;;;;13.11;100.00;100329.69;5017481;28;19922;-73
2024/03/11 20:44:08;;;;;;;;;;;;;;;12.95;100.00;100337.94;5019675;28;20055;-73
2024/03/11 20:46:35;;;;;;;;;;;;;;;13.01;100.00;100339.78;4980495;28;20008;-71
2024/03/11 20:49:04;;;;;;;;;;;;;;;13.11;100.00;100334.03;5022842;28;20003;-73
2024/03/11 20:51:29;;;;;;;;;;;;;;;13.18;100.00;100337.63;5020544;28;19964;-73
2024/03/11 20:53:55;;;;;;;;;;;;;;;13.21;100.00;100337.72;5017775;28;20379;-73
2024/03/11 20:56:21;;;;;;;;;;;;;;;13.06;100.00;100335.59;5015173;28;19928;-73
2024/03/11 20:58:48;;;;;;;;;;;;;;;12.77;100.00;100349.59;5019703;28;19917;-74
2024/03/11 21:01:14;;;;;;;;;;;;;;;12.73;100.00;100347.75;5014916;28;19925;-73
2024/03/11 21:03:40;;;;;;;;;;;;;;;12.75;100.00;100352.97;5018738;28;19914;-73
2024/03/11 21:06:05;;;;;;;;;;;;;;;12.79;100.00;100353.09;5015244;28;19929;-73
2024/03/11 21:08:32;;;;;;;;;;;;;;;12.84;100.00;100360.13;5016434;28;19967;-73
2024/03/11 21:10:57;;;;;;;;;;;;;;;12.87;100.00;100355.91;5017487;28;19929;-74
2024/03/11 21:13:22;;;;;;;;;;;;;;;12.90;100.00;100353.38;5018572;28;19967;-74
2024/03/11 21:15:49;;;;;;;;;;;;;;;12.92;100.00;100350.81;5018805;28;20323;-73
2024/03/11 21:18:19;;;;;;;;;;;;;;;12.90;100.00;100353.38;5020643;28;19920;-73
2024/03/11 21:20:55;;;;;;;;;;;;;;;12.79;100.00;100353.09;5013701;28;19921;-73
2024/03/11 21:23:35;;;;;;;;;;;;;;;12.53;100.00;100349.81;5013395;28;19922;-73
2024/03/11 21:26:37;;;;;;;;;;;;;;;12.34;100.00;100348.44;4958761;28;20540;-73
2024/03/11 21:29:04;;;;;;;;;;;;;;;12.18;100.00;100346.25;4959223;28;19985;-73
2024/03/11 21:31:31;;;;;;;;;;;;;;;12.09;100.00;100342.56;4956553;28;19934;-73